Time;durP1;ratioP1;P1;durP2;ratioP2;P2;SDS_P1;SDS_P2;PMS_P1;PMS_P2;Temp;Humidity;BMP_temperature;BMP_pressure;BME280_temperature;BME280_humidity;BME280_pressure;Samples;Min_cycle;Max_cycle;Signal;HPM_P1;HPM_P2
2022/06/13 00:00:25;;;;;;;15.70;4.80;;;13.10;99.90;;;;;;5074002;28;20068;-84
2022/06/13 00:02:51;;;;;;;17.60;5.10;;;13.10;99.90;;;;;;5074342;28;20048;-84
2022/06/13 00:05:18;;;;;;;15.90;4.75;;;13.10;99.90;;;;;;5058533;28;20098;-84
2022/06/13 00:07:43;;;;;;;16.30;5.53;;;13.00;99.90;;;;;;5071852;28;20068;-84
2022/06/13 00:10:11;;;;;;;14.27;4.72;;;13.10;99.90;;;;;;5054129;28;20449;-84
2022/06/13 00:12:39;;;;;;;14.00;5.85;;;13.00;99.90;;;;;;5073410;28;20399;-84
2022/06/13 00:15:06;;;;;;;15.45;4.75;;;13.00;99.90;;;;;;5071436;28;20587;-84
2022/06/13 00:17:31;;;;;;;15.35;5.03;;;13.00;99.90;;;;;;5071160;28;20095;-84
2022/06/13 00:19:57;;;;;;;15.90;5.10;;;13.00;99.90;;;;;;5071379;28;20036;-84
2022/06/13 00:22:23;;;;;;;16.90;5.35;;;13.00;99.90;;;;;;5050382;28;20047;-84
2022/06/13 00:24:49;;;;;;;12.88;4.65;;;13.00;99.90;;;;;;5052197;28;20480;-84
2022/06/13 00:27:15;;;;;;;17.20;5.28;;;13.00;99.90;;;;;;5052923;28;20075;-84
2022/06/13 00:29:42;;;;;;;9.82;4.55;;;13.00;99.90;;;;;;5071090;28;20040;-84
2022/06/13 00:32:08;;;;;;;12.27;4.30;;;13.00;99.90;;;;;;5072086;28;20051;-84
2022/06/13 00:34:34;;;;;;;15.77;5.07;;;12.90;99.90;;;;;;5072787;28;20055;-84
2022/06/13 00:36:59;;;;;;;12.05;4.55;;;13.00;99.90;;;;;;5071512;28;20037;-84
2022/06/13 00:39:25;;;;;;;14.68;4.90;;;12.90;99.90;;;;;;5070419;28;20048;-84
2022/06/13 00:41:51;;;;;;;15.25;5.25;;;12.90;99.90;;;;;;5071730;28;20067;-84
2022/06/13 00:44:27;;;;;;;19.48;4.95;;;12.90;99.90;;;;;;5071285;28;20044;-84
2022/06/13 00:46:53;;;;;;;15.82;4.95;;;12.90;99.90;;;;;;5073769;28;20049;-85
2022/06/13 00:49:29;;;;;;;20.27;4.95;;;12.90;99.90;;;;;;5076152;28;20047;-84
2022/06/13 00:52:23;;;;;;;22.00;5.28;;;12.90;99.90;;;;;;5076510;28;20045;-84
2022/06/13 00:54:51;;;;;;;14.93;4.95;;;12.80;99.90;;;;;;5068791;28;20048;-84
2022/06/13 00:57:24;;;;;;;14.02;5.60;;;12.90;99.90;;;;;;5075435;28;20055;-84
2022/06/13 00:59:56;;;;;;;17.27;5.35;;;12.80;99.90;;;;;;5074148;28;20040;-84
2022/06/13 01:02:23;;;;;;;17.17;5.60;;;12.80;99.90;;;;;;5075144;28;20105;-84
2022/06/13 01:04:52;;;;;;;16.75;5.50;;;12.80;99.90;;;;;;5075914;28;20045;-84
2022/06/13 01:07:20;;;;;;;17.88;5.20;;;12.80;99.90;;;;;;5074274;28;20205;-84
2022/06/13 01:12:32;;;;;;;15.23;5.10;;;12.70;99.90;;;;;;5092030;28;20106;-84
2022/06/13 01:15:18;;;;;;;16.95;5.40;;;12.80;99.90;;;;;;5074983;28;20056;-84
2022/06/13 01:18:02;;;;;;;13.57;5.53;;;12.80;99.90;;;;;;5072778;28;20055;-84
2022/06/13 01:20:45;;;;;;;15.05;4.88;;;12.80;99.90;;;;;;5074125;28;20048;-84
2022/06/13 01:23:22;;;;;;;21.45;5.88;;;12.80;99.90;;;;;;5073855;28;20040;-84
2022/06/13 01:26:02;;;;;;;18.50;7.15;;;12.70;99.90;;;;;;5075167;28;20080;-83
2022/06/13 01:28:55;;;;;;;17.85;6.40;;;12.70;99.90;;;;;;5073323;28;20514;-84
2022/06/13 01:31:24;;;;;;;13.30;6.00;;;12.70;99.90;;;;;;5075068;28;20048;-84
2022/06/13 01:34:14;;;;;;;17.38;6.13;;;12.70;99.90;;;;;;5074083;28;20044;-84
2022/06/13 01:37:04;;;;;;;11.52;4.63;;;12.70;99.90;;;;;;5074909;28;20428;-84
2022/06/13 01:39:53;;;;;;;18.73;6.40;;;12.60;99.90;;;;;;5074651;28;20071;-84
2022/06/13 01:42:41;;;;;;;16.98;5.88;;;12.60;99.90;;;;;;5074267;28;20102;-84
2022/06/13 01:45:31;;;;;;;17.83;5.70;;;12.60;99.90;;;;;;5075828;28;20383;-84
2022/06/13 01:48:20;;;;;;;19.92;7.22;;;12.50;99.90;;;;;;5066607;28;20068;-84
2022/06/13 01:51:01;;;;;;;21.05;6.43;;;12.50;99.90;;;;;;5055096;28;20496;-85
2022/06/13 01:53:30;;;;;;;20.92;6.72;;;12.50;99.90;;;;;;5069424;28;20045;-85
2022/06/13 01:56:00;;;;;;;16.80;7.32;;;12.50;99.90;;;;;;5070784;28;20048;-84
2022/06/13 01:58:57;;;;;;;25.80;7.97;;;12.50;99.90;;;;;;5073291;28;20049;-84
2022/06/13 02:01:42;;;;;;;22.90;7.10;;;12.50;99.90;;;;;;5073795;28;20075;-84
2022/06/13 02:04:19;;;;;;;20.08;6.88;;;12.50;99.90;;;;;;5073452;28;20488;-84
2022/06/13 02:06:51;;;;;;;27.52;7.68;;;12.50;99.90;;;;;;5073064;28;20051;-85
2022/06/13 02:09:23;;;;;;;23.13;7.63;;;12.60;99.90;;;;;;5056554;28;20423;-85
2022/06/13 02:11:54;;;;;;;18.90;7.22;;;12.60;99.90;;;;;;5072910;28;20052;-84
2022/06/13 02:14:32;;;;;;;16.83;6.93;;;12.60;99.90;;;;;;5073860;28;20052;-85
2022/06/13 02:17:03;;;;;;;21.73;8.00;;;12.60;99.90;;;;;;5074399;28;20048;-84
2022/06/13 02:19:53;;;;;;;25.92;8.15;;;12.60;99.90;;;;;;5073322;28;20037;-84
2022/06/13 02:22:27;;;;;;;18.92;6.65;;;12.70;99.90;;;;;;5060839;28;20051;-84
2022/06/13 02:25:03;;;;;;;23.48;8.60;;;12.70;99.90;;;;;;5083217;28;20029;-84
2022/06/13 02:27:35;;;;;;;25.85;9.20;;;12.70;99.90;;;;;;5054009;28;20124;-85
2022/06/13 02:30:06;;;;;;;22.23;8.45;;;12.70;99.90;;;;;;5061222;28;20047;-85
2022/06/13 02:32:43;;;;;;;24.88;9.52;;;12.70;99.90;;;;;;5056036;28;20047;-85
2022/06/13 02:35:24;;;;;;;24.17;7.95;;;12.80;99.90;;;;;;5072908;28;20491;-84
2022/06/13 02:38:12;;;;;;;29.83;9.05;;;12.80;99.90;;;;;;5072308;28;20083;-86
2022/06/13 02:40:47;;;;;;;22.50;7.47;;;12.80;99.90;;;;;;5056182;28;20052;-85
2022/06/13 02:43:37;;;;;;;23.70;8.00;;;12.80;99.90;;;;;;5074648;28;20063;-85
2022/06/13 02:46:13;;;;;;;26.98;8.20;;;12.90;99.90;;;;;;5055335;28;20049;-85
2022/06/13 02:48:47;;;;;;;20.30;7.47;;;12.80;99.90;;;;;;5074720;28;20480;-85
2022/06/13 02:51:45;;;;;;;26.35;7.90;;;12.90;99.90;;;;;;5073713;28;20037;-85
2022/06/13 02:54:19;;;;;;;24.52;7.50;;;12.90;99.90;;;;;;5058367;28;20048;-84
2022/06/13 02:59:35;;;;;;;23.02;7.43;;;12.90;99.90;;;;;;5072941;28;20194;-85
2022/06/13 03:02:04;;;;;;;20.20;6.63;;;12.90;99.90;;;;;;5071406;28;20487;-84
2022/06/13 03:04:37;;;;;;;20.92;7.45;;;12.90;99.90;;;;;;5073744;28;20101;-85
2022/06/13 03:07:31;;;;;;;20.13;6.82;;;12.90;99.90;;;;;;5052587;28;20049;-85
2022/06/13 03:10:10;;;;;;;14.90;6.07;;;12.90;99.90;;;;;;5071552;28;20047;-84
2022/06/13 03:12:49;;;;;;;22.55;6.47;;;12.90;99.90;;;;;;5072973;28;20047;-84
2022/06/13 03:15:34;;;;;;;25.60;6.78;;;12.90;99.90;;;;;;5072166;28;20060;-85
2022/06/13 03:18:08;;;;;;;22.77;6.55;;;12.90;99.90;;;;;;5070931;28;20051;-85
2022/06/13 03:20:44;;;;;;;18.15;6.00;;;12.90;99.90;;;;;;5066091;28;20056;-84
2022/06/13 03:23:34;;;;;;;14.25;4.63;;;12.90;99.90;;;;;;5035887;28;20049;-84
2022/06/13 03:26:10;;;;;;;11.63;4.53;;;12.90;99.90;;;;;;5053127;28;20087;-85
2022/06/13 03:28:52;;;;;;;14.93;4.10;;;12.90;99.90;;;;;;5053075;28;20523;-84
2022/06/13 03:31:46;;;;;;;16.10;4.07;;;12.90;99.90;;;;;;5054250;28;20068;-84
2022/06/13 03:34:40;;;;;;;10.32;3.65;;;12.90;99.90;;;;;;5053046;28;20045;-84
2022/06/13 03:37:12;;;;;;;8.37;3.63;;;13.00;99.90;;;;;;5069749;28;20048;-83
2022/06/13 03:39:51;;;;;;;10.10;3.63;;;12.90;99.90;;;;;;5055604;28;20047;-84
2022/06/13 03:42:28;;;;;;;9.77;2.58;;;12.90;99.90;;;;;;5051418;28;20052;-85
2022/06/13 03:45:16;;;;;;;12.35;3.08;;;12.90;99.90;;;;;;5071946;28;20037;-85
2022/06/13 03:48:11;;;;;;;10.50;2.85;;;13.00;99.90;;;;;;5071806;28;20135;-84
2022/06/13 03:50:47;;;;;;;7.80;2.80;;;12.90;99.90;;;;;;5073200;28;20107;-84
2022/06/13 03:53:22;;;;;;;11.63;2.55;;;12.90;99.90;;;;;;5071769;28;20044;-84
2022/06/13 03:56:11;;;;;;;11.40;2.78;;;12.90;99.90;;;;;;5051250;28;20128;-84
2022/06/13 03:58:44;;;;;;;8.73;2.70;;;12.90;99.90;;;;;;5071864;28;20052;-84
2022/06/13 04:01:17;;;;;;;9.88;3.00;;;13.00;99.90;;;;;;5055707;28;20426;-84
2022/06/13 04:03:43;;;;;;;13.70;3.22;;;12.90;99.90;;;;;;5074124;28;20052;-84
2022/06/13 04:06:29;;;;;;;9.82;2.50;;;12.90;99.90;;;;;;5072209;28;20071;-84
2022/06/13 04:08:55;;;;;;;7.10;2.35;;;13.00;99.90;;;;;;5060358;28;20523;-84
2022/06/13 04:11:40;;;;;;;7.93;2.55;;;13.00;99.90;;;;;;5071031;28;20049;-84
2022/06/13 04:14:22;;;;;;;12.52;4.03;;;13.00;99.90;;;;;;5068666;28;20057;-84
2022/06/13 04:16:57;;;;;;;17.88;3.40;;;13.00;99.90;;;;;;5054254;28;20048;-84
2022/06/13 04:19:44;;;;;;;11.85;3.10;;;13.00;99.90;;;;;;5072092;28;20059;-85
2022/06/13 04:22:22;;;;;;;11.98;2.88;;;13.00;99.90;;;;;;5056407;28;20045;-84
2022/06/13 04:25:01;;;;;;;9.55;2.80;;;13.00;99.90;;;;;;5055465;28;20392;-84
2022/06/13 04:27:53;;;;;;;11.88;2.75;;;13.00;99.90;;;;;;5063292;28;20040;-83
2022/06/13 04:30:22;;;;;;;7.55;2.47;;;13.00;99.90;;;;;;5075088;28;20049;-84
2022/06/13 04:32:52;;;;;;;10.05;2.70;;;13.00;99.90;;;;;;5076646;28;20049;-85
2022/06/13 04:35:20;;;;;;;5.90;2.08;;;13.00;99.90;;;;;;5075278;28;20049;-85
2022/06/13 04:37:47;;;;;;;9.27;2.25;;;13.10;99.90;;;;;;5076373;28;20041;-84
2022/06/13 04:40:19;;;;;;;7.60;2.15;;;13.20;99.90;;;;;;5075211;28;20170;-85
2022/06/13 04:42:47;;;;;;;10.23;2.33;;;13.30;99.90;;;;;;5057003;28;20060;-84
2022/06/13 04:45:45;;;;;;;5.82;2.30;;;13.40;99.90;;;;;;5055850;28;20563;-84
2022/06/13 04:48:11;;;;;;;10.55;2.60;;;13.50;99.90;;;;;;5056753;28;20396;-84
2022/06/13 04:50:44;;;;;;;7.93;2.00;;;13.50;99.90;;;;;;5070255;28;20055;-84
2022/06/13 04:53:30;;;;;;;6.88;1.98;;;13.50;99.90;;;;;;5074616;28;20051;-84
2022/06/13 04:55:59;;;;;;;9.70;3.00;;;13.50;99.90;;;;;;5075169;28;20092;-84
2022/06/13 04:58:28;;;;;;;8.93;2.25;;;13.50;99.90;;;;;;5074665;28;20041;-84
2022/06/13 05:01:05;;;;;;;4.00;1.50;;;13.50;99.90;;;;;;5058336;28;20045;-87
2022/06/13 05:03:37;;;;;;;2.75;1.38;;;13.40;99.90;;;;;;5076467;28;20100;-85
2022/06/13 05:06:06;;;;;;;6.20;1.40;;;13.30;99.90;;;;;;5061808;28;20043;-83
2022/06/13 05:08:36;;;;;;;2.45;0.85;;;13.20;99.90;;;;;;5055230;28;20053;-84
2022/06/13 05:11:07;;;;;;;3.08;0.60;;;13.20;99.90;;;;;;5068460;28;20048;-84
2022/06/13 05:13:33;;;;;;;1.38;0.80;;;13.10;99.90;;;;;;5075588;28;20138;-84
2022/06/13 05:16:26;;;;;;;3.25;0.85;;;13.00;99.90;;;;;;5074538;28;20502;-84
2022/06/13 05:18:58;;;;;;;4.88;1.00;;;13.00;99.90;;;;;;5074621;28;20040;-85
2022/06/13 05:21:50;;;;;;;2.67;0.98;;;12.90;99.90;;;;;;5065929;28;20051;-84
2022/06/13 05:24:40;;;;;;;2.53;0.90;;;12.90;99.90;;;;;;5067436;28;20167;-85
2022/06/13 05:27:08;;;;;;;8.23;1.27;;;12.90;99.90;;;;;;5076143;28;20403;-83
2022/06/13 05:29:34;;;;;;;7.68;2.20;;;12.90;99.90;;;;;;5076796;28;20498;-84
2022/06/13 05:32:01;;;;;;;6.93;1.95;;;13.00;99.90;;;;;;5081337;28;20046;-85
2022/06/13 05:34:33;;;;;;;4.10;1.30;;;13.10;99.90;;;;;;5073599;28;20499;-84
2022/06/13 05:37:00;;;;;;;6.22;1.42;;;13.10;99.90;;;;;;5074687;28;20123;-84
2022/06/13 05:39:26;;;;;;;7.30;1.67;;;13.30;99.90;;;;;;5076288;28;20056;-84
2022/06/13 05:41:52;;;;;;;9.50;2.00;;;13.40;99.90;;;;;;5062948;28;20476;-85
2022/06/13 05:44:18;;;;;;;4.97;1.65;;;13.50;99.90;;;;;;5074594;28;20036;-86
2022/06/13 05:46:44;;;;;;;11.05;1.40;;;13.60;99.90;;;;;;5057954;28;20048;-85
2022/06/13 05:49:13;;;;;;;7.70;1.65;;;13.70;99.90;;;;;;5074694;28;20064;-84
2022/06/13 05:51:39;;;;;;;7.22;2.03;;;13.80;99.90;;;;;;5074640;28;20373;-85
2022/06/13 05:54:05;;;;;;;7.13;1.50;;;13.90;99.90;;;;;;5073506;28;20128;-87
2022/06/13 05:56:31;;;;;;;5.45;1.45;;;14.00;99.90;;;;;;5073595;28;20123;-84
2022/06/13 05:58:57;;;;;;;6.78;1.50;;;14.20;99.90;;;;;;5076515;28;20048;-86
2022/06/13 06:01:23;;;;;;;10.40;1.50;;;14.30;99.90;;;;;;5057390;28;20063;-87
2022/06/13 06:03:49;;;;;;;5.60;1.60;;;14.40;99.90;;;;;;5072808;28;20102;-84
2022/06/13 06:06:21;;;;;;;7.65;1.77;;;14.50;99.90;;;;;;5075276;28;20044;-84
2022/06/13 06:08:47;;;;;;;12.00;1.65;;;14.60;99.90;;;;;;5070240;28;20495;-84
2022/06/13 06:11:13;;;;;;;7.25;1.63;;;14.60;99.90;;;;;;5074359;28;20400;-93
2022/06/13 06:13:39;;;;;;;10.00;1.83;;;14.60;99.90;;;;;;5074155;28;20074;-85
2022/06/13 06:16:05;;;;;;;9.57;2.10;;;14.70;99.90;;;;;;5073963;28;20101;-85
2022/06/13 06:18:31;;;;;;;6.20;1.60;;;14.60;99.90;;;;;;5072867;28;20508;-91
2022/06/13 06:20:58;;;;;;;5.55;1.50;;;14.40;99.90;;;;;;5072310;28;20040;-84
2022/06/13 06:23:24;;;;;;;15.50;3.05;;;14.20;99.90;;;;;;5092857;28;20051;-84
2022/06/13 06:25:50;;;;;;;12.77;1.95;;;14.10;99.90;;;;;;5071104;28;20044;-82
2022/06/13 06:28:26;;;;;;;6.20;1.48;;;13.90;99.90;;;;;;5081923;28;20122;-84
2022/06/13 06:30:54;;;;;;;8.77;1.63;;;13.80;99.90;;;;;;5068617;28;20045;-83
2022/06/13 06:33:23;;;;;;;9.45;1.95;;;13.70;99.90;;;;;;5073639;28;20499;-82
2022/06/13 06:35:51;;;;;;;7.45;1.88;;;13.60;99.90;;;;;;5074850;28;20396;-82
2022/06/13 06:38:17;;;;;;;4.05;1.17;;;13.50;99.90;;;;;;5071842;28;20048;-82
2022/06/13 06:40:43;;;;;;;5.20;1.23;;;13.50;99.90;;;;;;5073317;28;20492;-82
2022/06/13 06:43:10;;;;;;;4.88;1.23;;;13.50;99.90;;;;;;5072522;28;20062;-83
2022/06/13 06:45:37;;;;;;;5.80;1.42;;;13.70;99.90;;;;;;5071917;28;20396;-82
2022/06/13 06:48:03;;;;;;;5.32;1.88;;;13.80;99.90;;;;;;5073934;28;20049;-84
2022/06/13 06:50:34;;;;;;;5.32;1.33;;;14.00;99.90;;;;;;5074590;28;20041;-84
2022/06/13 06:53:00;;;;;;;5.03;1.60;;;14.20;99.90;;;;;;5072803;28;20048;-84
2022/06/13 07:00:59;;;;;;;3.95;1.10;;;14.70;99.90;;;;;;5089817;28;20094;-82
2022/06/13 07:03:25;;;;;;;9.50;1.65;;;14.80;99.90;;;;;;5075173;28;20055;-83
2022/06/13 07:05:52;;;;;;;6.20;1.20;;;14.90;99.90;;;;;;5072184;28;20045;-85
2022/06/13 07:08:18;;;;;;;6.85;1.20;;;14.90;99.90;;;;;;5073339;28;20033;-83
2022/06/13 07:10:48;;;;;;;6.63;1.38;;;15.00;99.90;;;;;;5072949;28;20060;-85
2022/06/13 07:13:14;;;;;;;5.90;1.23;;;15.10;99.90;;;;;;5073296;28;20465;-84
2022/06/13 07:15:40;;;;;;;7.25;1.13;;;15.20;99.90;;;;;;5073892;28;20041;-86
2022/06/13 07:18:07;;;;;;;10.57;1.60;;;15.20;99.90;;;;;;5076066;28;20115;-88
2022/06/13 07:20:38;;;;;;;8.18;1.48;;;15.30;99.90;;;;;;5071978;28;20587;-88
2022/06/13 07:23:06;;;;;;;10.13;1.83;;;15.30;99.90;;;;;;5084571;28;20048;-88
2022/06/13 07:25:33;;;;;;;7.60;1.67;;;15.30;99.90;;;;;;5093066;28;20123;-86
2022/06/13 07:27:59;;;;;;;9.85;2.15;;;15.20;99.90;;;;;;5054485;28;20048;-82
2022/06/13 07:30:29;;;;;;;6.13;1.42;;;15.10;99.90;;;;;;5071591;28;20051;-83
2022/06/13 07:32:55;;;;;;;4.78;1.23;;;15.00;99.90;;;;;;5075123;28;20412;-90
2022/06/13 07:35:23;;;;;;;7.63;1.80;;;15.00;99.90;;;;;;5071476;28;20036;-83
2022/06/13 07:40:36;;;;;;;4.82;1.50;;;15.00;99.90;;;;;;5068895;28;20531;-94
2022/06/13 07:43:04;;;;;;;6.13;1.50;;;15.10;99.90;;;;;;5072899;28;20051;-82
2022/06/13 07:45:33;;;;;;;7.40;1.15;;;15.10;99.90;;;;;;5066438;28;20054;-89
2022/06/13 07:47:59;;;;;;;8.13;1.33;;;15.10;99.90;;;;;;5069887;28;20090;-87
2022/06/13 07:50:27;;;;;;;11.05;2.10;;;15.00;99.90;;;;;;5070306;28;20419;-85
2022/06/13 07:52:53;;;;;;;8.85;1.58;;;15.10;99.90;;;;;;5055138;28;20055;-86
2022/06/13 07:55:20;;;;;;;10.32;2.40;;;15.30;99.90;;;;;;5071751;28;20083;-90
2022/06/13 07:57:47;;;;;;;4.15;1.00;;;15.40;99.90;;;;;;5073567;28;20048;-83
2022/06/13 08:00:21;;;;;;;7.55;1.20;;;15.50;99.90;;;;;;5066698;28;20033;-85
2022/06/13 08:02:47;;;;;;;8.13;1.38;;;15.50;99.90;;;;;;5068943;28;20047;-89
2022/06/13 08:05:12;;;;;;;6.38;1.50;;;15.50;99.90;;;;;;5055948;28;20053;-85
2022/06/13 08:07:39;;;;;;;10.52;1.40;;;15.60;99.90;;;;;;5070013;28;20129;-91
2022/06/13 08:10:05;;;;;;;7.03;1.17;;;15.70;99.90;;;;;;5076594;28;20047;-86
2022/06/13 08:12:31;;;;;;;9.38;1.98;;;15.80;99.90;;;;;;5092330;28;20056;-84
2022/06/13 08:14:57;;;;;;;6.93;1.25;;;15.80;99.90;;;;;;5089417;28;20480;-90
2022/06/13 08:17:23;;;;;;;10.65;1.38;;;15.70;99.90;;;;;;5057017;28;20044;-84
2022/06/13 08:19:50;;;;;;;8.00;2.08;;;15.60;99.90;;;;;;5073366;28;20040;-89
2022/06/13 08:22:16;;;;;;;14.65;2.00;;;15.50;99.90;;;;;;5071772;28;20084;-85
2022/06/13 08:24:42;;;;;;;8.10;1.92;;;15.60;99.90;;;;;;5054704;28;20127;-87
2022/06/13 08:27:08;;;;;;;5.40;1.30;;;15.70;99.90;;;;;;5070854;28;20048;-90
2022/06/13 08:29:34;;;;;;;11.57;1.60;;;15.80;99.90;;;;;;5072395;28;20048;-89
2022/06/13 08:32:01;;;;;;;8.27;1.08;;;15.80;99.90;;;;;;5073469;28;20040;-85
2022/06/13 08:34:28;;;;;;;5.47;1.60;;;15.70;99.90;;;;;;5072196;28;20041;-86
2022/06/13 08:36:54;;;;;;;8.50;1.90;;;15.60;99.90;;;;;;5073385;28;20128;-87
2022/06/13 08:39:20;;;;;;;8.23;1.48;;;15.50;99.90;;;;;;5055144;28;20133;-89
2022/06/13 08:42:17;;;;;;;7.03;1.58;;;15.60;99.90;;;;;;5073454;28;20045;-87
2022/06/13 08:44:49;;;;;;;6.90;1.30;;;15.80;99.90;;;;;;5072286;28;20076;-89
2022/06/13 08:47:30;;;;;;;8.00;1.20;;;15.90;99.90;;;;;;5070464;28;20456;-85
2022/06/13 08:50:01;;;;;;;6.70;1.17;;;16.00;99.90;;;;;;5061334;28;20445;-89
2022/06/13 08:52:34;;;;;;;6.38;1.10;;;15.90;99.90;;;;;;5070309;28;20044;-88
2022/06/13 08:55:27;;;;;;;6.82;1.38;;;15.80;99.90;;;;;;5072896;28;20036;-90
2022/06/13 08:58:08;;;;;;;5.55;1.63;;;15.70;99.90;;;;;;5071380;28;20050;-90
2022/06/13 09:00:40;;;;;;;8.00;1.55;;;15.70;99.90;;;;;;5056989;28;20385;-88
2022/06/13 09:03:15;;;;;;;8.50;1.67;;;15.80;99.90;;;;;;5054217;28;20052;-91
2022/06/13 09:05:51;;;;;;;11.93;1.50;;;15.70;99.90;;;;;;5058490;28;20123;-84
2022/06/13 09:08:46;;;;;;;10.50;1.75;;;15.70;99.90;;;;;;5056989;28;20056;-90
2022/06/13 09:11:41;;;;;;;8.17;1.53;;;15.60;99.90;;;;;;5082512;28;20052;-87
2022/06/13 09:14:27;;;;;;;7.60;1.40;;;15.60;99.90;;;;;;5073288;28;20052;-86
2022/06/13 09:17:25;;;;;;;10.23;2.08;;;15.60;99.90;;;;;;5073135;28;20170;-87
2022/06/13 09:20:13;;;;;;;11.02;1.60;;;15.70;99.90;;;;;;5053866;28;20536;-89
2022/06/13 09:23:02;;;;;;;9.13;1.30;;;15.90;99.90;;;;;;5055026;28;20095;-86
2022/06/13 09:25:46;;;;;;;9.82;1.88;;;16.20;99.90;;;;;;5082470;28;20119;-86
2022/06/13 09:28:24;;;;;;;7.88;1.95;;;16.30;99.90;;;;;;5067473;28;20040;-88
2022/06/13 09:31:13;;;;;;;10.10;1.52;;;16.20;99.90;;;;;;5074835;28;20400;-81
2022/06/13 09:33:47;;;;;;;12.27;2.67;;;16.30;99.90;;;;;;5072613;28;20084;-87
2022/06/13 09:36:29;;;;;;;7.00;1.38;;;16.30;99.90;;;;;;5074749;28;20052;-89
2022/06/13 09:39:03;;;;;;;7.47;1.23;;;16.40;99.90;;;;;;5074496;28;20080;-88
2022/06/13 09:41:35;;;;;;;8.50;1.48;;;16.40;99.90;;;;;;5074930;28;20048;-87
2022/06/13 09:44:19;;;;;;;9.23;1.98;;;16.40;99.90;;;;;;5058519;28;20120;-81
2022/06/13 09:47:00;;;;;;;7.95;1.90;;;16.50;99.90;;;;;;5053571;28;20045;-85
2022/06/13 09:49:38;;;;;;;9.10;1.50;;;16.50;99.90;;;;;;5069349;28;20078;-84
2022/06/13 09:52:14;;;;;;;12.95;1.90;;;16.40;99.90;;;;;;5073968;28;20053;-82
2022/06/13 09:55:14;;;;;;;5.45;1.73;;;16.50;99.90;;;;;;5073678;28;20055;-83
2022/06/13 09:58:17;;;;;;;14.32;2.45;;;16.70;99.90;;;;;;5055529;28;20045;-83
2022/06/13 10:01:07;;;;;;;7.65;1.67;;;16.60;99.90;;;;;;5056285;28;20488;-81
2022/06/13 10:03:54;;;;;;;8.07;1.95;;;16.30;99.90;;;;;;5072016;28;20583;-82
2022/06/13 10:06:25;;;;;;;8.70;1.88;;;16.00;99.90;;;;;;5066971;28;20403;-82
2022/06/13 10:09:20;;;;;;;9.55;1.60;;;15.80;99.90;;;;;;5077620;28;20488;-80
2022/06/13 10:11:54;;;;;;;5.82;1.35;;;15.60;99.90;;;;;;5061356;28;20411;-80
2022/06/13 10:14:35;;;;;;;8.50;1.92;;;15.50;99.90;;;;;;5055487;28;20056;-81
2022/06/13 10:17:31;;;;;;;9.05;1.75;;;15.40;99.90;;;;;;5083075;28;20045;-82
2022/06/13 10:20:30;;;;;;;8.40;1.75;;;15.40;99.90;;;;;;5059167;28;20048;-83
2022/06/13 10:23:15;;;;;;;5.00;1.25;;;15.50;99.90;;;;;;5083121;28;20098;-82
2022/06/13 10:25:53;;;;;;;7.43;2.22;;;15.70;99.90;;;;;;5094065;28;20044;-84
2022/06/13 10:28:50;;;;;;;6.50;1.30;;;15.90;99.90;;;;;;5093964;28;20048;-85
2022/06/13 10:31:22;;;;;;;10.73;1.70;;;16.20;99.90;;;;;;5095076;28;20540;-89
2022/06/13 10:33:56;;;;;;;8.07;1.50;;;16.40;99.90;;;;;;5077468;28;20163;-87
2022/06/13 10:36:38;;;;;;;;;;;16.40;99.90;;;;;;5073252;28;20045;-84
2022/06/13 10:39:08;;;;;;;8.27;1.73;;;16.10;99.90;;;;;;5073615;28;19963;-87
2022/06/13 10:41:38;;;;;;;7.35;1.45;;;15.60;99.90;;;;;;5073875;28;20059;-85
2022/06/13 10:44:07;;;;;;;8.45;1.65;;;15.20;99.90;;;;;;5073876;28;20377;-81
2022/06/13 10:46:33;;;;;;;7.05;1.67;;;14.90;99.90;;;;;;5074186;28;20094;-85
2022/06/13 10:49:07;;;;;;;4.88;1.42;;;14.70;99.90;;;;;;5074630;28;20052;-81
2022/06/13 10:51:34;;;;;;;9.80;2.17;;;14.70;99.90;;;;;;5073679;28;20476;-82
2022/06/13 10:54:10;;;;;;;17.27;2.30;;;14.70;99.90;;;;;;5073245;28;20056;-82
2022/06/13 10:57:01;;;;;;;9.60;2.10;;;14.80;99.90;;;;;;5073264;28;20505;-81
2022/06/13 10:59:30;;;;;;;13.48;2.00;;;14.80;99.90;;;;;;5073333;28;20048;-84
2022/06/13 11:02:00;;;;;;;10.80;2.65;;;14.90;99.90;;;;;;5056192;28;20100;-82
2022/06/13 11:04:35;;;;;;;9.18;1.83;;;15.00;99.90;;;;;;5072264;28;20510;-81
2022/06/13 11:07:19;;;;;;;;;;;15.10;99.90;;;;;;5057134;28;20036;-84
2022/06/13 11:09:57;;;;;;;13.57;2.88;;;15.10;99.90;;;;;;5072990;28;20368;-83
2022/06/13 11:12:30;;;;;;;12.65;2.50;;;15.20;99.90;;;;;;5072105;28;20056;-84
2022/06/13 11:23:18;;;;;;;12.00;2.55;;;16.00;99.90;;;;;;5089516;28;20048;-87
2022/06/13 11:25:53;;;;;;;13.13;2.53;;;16.20;99.90;;;;;;5071865;28;20036;-87
2022/06/13 11:28:22;;;;;;;12.13;2.13;;;16.30;99.90;;;;;;5072647;28;20047;-83
2022/06/13 11:30:50;;;;;;;6.85;1.95;;;16.40;99.90;;;;;;5071713;28;20036;-84
2022/06/13 11:33:36;;;;;;;6.40;1.73;;;16.50;99.90;;;;;;5071743;28;20118;-84
2022/06/13 11:36:22;;;;;;;7.30;1.33;;;16.50;99.90;;;;;;5072626;28;20110;-83
2022/06/13 11:38:50;;;;;;;10.20;2.22;;;16.40;99.90;;;;;;5072631;28;20476;-83
2022/06/13 11:41:22;;;;;;;8.65;1.67;;;16.50;99.90;;;;;;5071527;28;20044;-82
2022/06/13 11:43:58;;;;;;;10.38;2.22;;;16.70;99.90;;;;;;5073831;28;20051;-83
2022/06/13 11:46:26;;;;;;;9.25;1.65;;;16.80;99.90;;;;;;5072709;28;20045;-82
2022/06/13 11:48:53;;;;;;;8.25;2.25;;;16.80;99.90;;;;;;5072401;28;20056;-84
2022/06/13 11:51:27;;;;;;;7.25;2.13;;;16.70;99.90;;;;;;5073468;28;20051;-83
2022/06/13 11:53:57;;;;;;;12.20;2.30;;;16.40;99.90;;;;;;5054936;28;20094;-85
2022/06/13 11:56:29;;;;;;;11.55;2.05;;;16.30;99.90;;;;;;5072418;28;20383;-85
2022/06/13 11:59:00;;;;;;;10.63;3.38;;;16.20;99.90;;;;;;5072316;28;20407;-83
2022/06/13 12:01:31;;;;;;;9.40;2.35;;;16.10;99.90;;;;;;5071393;28;20044;-83
2022/06/13 12:04:11;;;;;;;11.38;2.00;;;16.10;99.90;;;;;;5073334;28;20075;-86
2022/06/13 12:06:43;;;;;;;11.77;2.17;;;16.20;99.90;;;;;;5072220;28;20044;-84
2022/06/13 12:09:34;;;;;;;6.88;1.60;;;16.20;99.90;;;;;;5071381;28;20510;-88
2022/06/13 12:12:06;;;;;;;10.57;2.05;;;16.20;99.90;;;;;;5068001;28;20049;-85
2022/06/13 12:14:40;;;;;;;13.80;2.55;;;16.30;99.90;;;;;;5072083;28;20052;-88
2022/06/13 12:17:37;;;;;;;11.48;2.13;;;16.40;99.90;;;;;;5073715;28;20036;-86
2022/06/13 12:20:11;;;;;;;10.38;1.83;;;16.40;99.90;;;;;;5069493;28;20060;-87
2022/06/13 12:22:52;;;;;;;7.43;1.87;;;16.40;99.90;;;;;;5071991;28;20098;-85
2022/06/13 12:25:44;;;;;;;11.35;1.80;;;16.30;99.90;;;;;;5072250;28;20052;-82
2022/06/13 12:28:14;;;;;;;11.05;1.52;;;16.20;99.90;;;;;;5071932;28;20127;-81
2022/06/13 12:31:12;;;;;;;8.30;2.05;;;16.20;99.90;;;;;;5071180;28;20089;-82
2022/06/13 12:33:58;;;;;;;8.95;2.63;;;16.30;99.90;;;;;;5072948;28;20043;-84
2022/06/13 12:36:47;;;;;;;8.13;1.50;;;16.30;99.90;;;;;;5072202;28;20134;-86
2022/06/13 12:39:18;;;;;;;9.05;1.88;;;16.30;99.90;;;;;;5042405;28;20045;-85
2022/06/13 12:41:47;;;;;;;6.28;1.45;;;16.30;99.90;;;;;;5071993;28;20036;-85
2022/06/13 12:44:34;;;;;;;8.27;1.30;;;16.40;99.90;;;;;;5075115;28;20045;-83
2022/06/13 12:47:03;;;;;;;9.85;1.67;;;16.70;99.90;;;;;;5075512;28;20070;-82
2022/06/13 12:50:18;;;;;;;6.03;1.20;;;16.80;99.90;;;;;;5075478;28;20089;-85
2022/06/13 12:53:13;;;;;;;7.45;1.30;;;16.80;99.90;;;;;;5075618;28;20052;-82
2022/06/13 12:55:53;;;;;;;14.25;1.48;;;16.80;99.90;;;;;;5075840;28;20040;-83
2022/06/13 12:58:51;;;;;;;5.35;1.02;;;17.00;99.90;;;;;;5076087;28;20040;-84
2022/06/13 13:01:25;;;;;;;7.65;2.55;;;17.00;99.90;;;;;;5075392;28;20041;-82
2022/06/13 13:04:14;;;;;;;6.93;1.38;;;17.00;99.90;;;;;;5055774;28;20520;-81
2022/06/13 13:07:05;;;;;;;6.15;1.60;;;16.90;99.90;;;;;;5055301;28;20053;-82
2022/06/13 13:09:31;;;;;;;6.25;1.48;;;16.90;99.90;;;;;;5056590;28;20055;-82
2022/06/13 13:12:11;;;;;;;7.93;2.33;;;16.70;99.90;;;;;;5055354;28;20049;-81
2022/06/13 13:14:46;;;;;;;9.38;2.03;;;16.60;99.90;;;;;;5055242;28;20045;-82
2022/06/13 13:17:18;;;;;;;5.75;1.42;;;16.50;99.90;;;;;;5064169;28;20036;-81
2022/06/13 13:19:53;;;;;;;7.65;1.98;;;16.50;99.90;;;;;;5075593;28;20039;-82
2022/06/13 13:22:33;;;;;;;10.88;1.80;;;16.40;99.90;;;;;;5076288;28;20087;-84
2022/06/13 13:25:30;;;;;;;10.00;2.03;;;16.40;99.90;;;;;;5075600;28;20827;-88
2022/06/13 13:28:23;;;;;;;10.43;2.17;;;16.50;99.90;;;;;;5076033;28;20466;-80
2022/06/13 13:30:58;;;;;;;9.00;1.30;;;16.50;99.90;;;;;;5076178;28;20490;-82
2022/06/13 13:33:46;;;;;;;10.40;1.88;;;16.50;99.90;;;;;;5055069;28;20048;-81
2022/06/13 13:36:51;;;;;;;8.50;1.67;;;16.50;99.90;;;;;;5055004;28;20076;-89
2022/06/13 13:39:31;;;;;;;6.65;1.02;;;16.70;99.90;;;;;;5047495;28;20136;-81
2022/06/13 13:42:18;;;;;;;5.55;1.20;;;16.90;99.90;;;;;;5056056;28;20048;-82
2022/06/13 13:44:55;;;;;;;4.25;0.80;;;17.20;99.90;;;;;;5056092;28;20117;-82
2022/06/13 13:47:22;;;;;;;6.28;1.65;;;17.40;99.90;;;;;;5069270;28;20047;-82